createdAt,value
2022-12-29T00:00:02.434Z,9.83
2022-12-29T00:02:39.608Z,9.97
2022-12-29T00:05:07.923Z,10.01
2022-12-29T00:07:34.688Z,10.05
2022-12-29T00:10:01.399Z,9.91
2022-12-29T00:12:48.044Z,9.80
2022-12-29T00:15:33.585Z,9.73
2022-12-29T00:18:00.984Z,9.63
2022-12-29T00:20:59.891Z,9.47
2022-12-29T00:23:44.895Z,9.39
2022-12-29T00:26:36.872Z,9.35
2022-12-29T00:29:22.633Z,9.33
2022-12-29T00:32:07.868Z,9.32
2022-12-29T00:34:53.445Z,9.37
2022-12-29T00:37:40.257Z,9.41
2022-12-29T00:40:26.468Z,9.48
2022-12-29T00:43:11.698Z,9.48
2022-12-29T00:45:42.618Z,9.62
2022-12-29T00:48:10.901Z,9.83
2022-12-29T00:50:37.832Z,9.99
2022-12-29T00:53:04.560Z,10.05
2022-12-29T00:55:31.275Z,10.16
2022-12-29T00:57:58.239Z,10.28
2022-12-29T01:00:25.007Z,10.27
2022-12-29T01:02:51.747Z,10.30
2022-12-29T01:05:18.443Z,10.39
2022-12-29T01:07:45.861Z,10.47
2022-12-29T01:10:12.578Z,10.39
2022-12-29T01:12:41.981Z,10.51
2022-12-29T01:15:14.703Z,10.48
2022-12-29T01:17:42.053Z,10.62
2022-12-29T01:20:09.666Z,10.69
2022-12-29T01:22:36.445Z,10.59
2022-12-29T01:25:04.904Z,10.55
2022-12-29T01:27:35.023Z,10.67
2022-12-29T01:30:01.841Z,10.63
2022-12-29T01:32:28.495Z,10.62
2022-12-29T01:34:55.249Z,10.41
2022-12-29T01:37:21.964Z,10.57
2022-12-29T01:39:48.668Z,10.52
2022-12-29T01:42:23.201Z,10.71
2022-12-29T01:44:59.162Z,10.50
2022-12-29T01:47:40.774Z,10.46
2022-12-29T01:50:16.925Z,10.52
2022-12-29T01:52:58.853Z,10.53
2022-12-29T01:55:30.122Z,10.54
2022-12-29T01:58:02.005Z,10.54
2022-12-29T02:00:30.750Z,10.51
2022-12-29T02:02:57.537Z,10.55
2022-12-29T02:05:33.196Z,10.47
2022-12-29T02:08:01.447Z,10.64
2022-12-29T02:10:32.000Z,10.51
2022-12-29T02:12:58.711Z,10.55
2022-12-29T02:15:58.000Z,10.53
2022-12-29T02:18:57.003Z,10.52
2022-12-29T02:21:41.749Z,10.62
2022-12-29T02:24:29.115Z,10.56
2022-12-29T02:27:17.748Z,10.62
2022-12-29T02:30:37.465Z,10.57
2022-12-29T02:33:50.313Z,10.58
2022-12-29T02:36:42.244Z,10.58
2022-12-29T02:39:42.338Z,10.51
2022-12-29T02:42:42.930Z,10.53
2022-12-29T02:45:54.174Z,10.63
2022-12-29T02:48:37.296Z,10.69
2022-12-29T02:51:11.106Z,10.58
2022-12-29T02:53:59.056Z,10.63
2022-12-29T02:56:26.861Z,10.60
2022-12-29T02:58:53.761Z,10.60
2022-12-29T03:01:32.842Z,10.65
2022-12-29T03:04:14.898Z,10.65
2022-12-29T03:07:24.884Z,10.58
2022-12-29T03:10:36.819Z,10.49
2022-12-29T03:13:32.573Z,10.57
2022-12-29T03:16:25.614Z,10.72
2022-12-29T03:19:02.296Z,10.76
2022-12-29T03:21:54.081Z,10.69
2022-12-29T03:24:27.733Z,10.76
2022-12-29T03:27:00.730Z,10.64
2022-12-29T03:29:36.887Z,10.72
2022-12-29T03:32:06.017Z,10.80
2022-12-29T03:34:35.342Z,10.84
2022-12-29T03:37:11.175Z,10.89
2022-12-29T03:39:38.623Z,10.84
2022-12-29T03:42:16.500Z,10.85
2022-12-29T03:44:46.901Z,10.82
2022-12-29T03:47:16.171Z,10.81
2022-12-29T03:49:45.463Z,10.79
2022-12-29T03:52:12.570Z,10.93
2022-12-29T03:54:43.543Z,10.87
2022-12-29T03:57:12.277Z,10.98
2022-12-29T03:59:49.868Z,10.89
2022-12-29T04:02:16.767Z,10.85
2022-12-29T04:04:45.333Z,10.78
2022-12-29T04:07:16.286Z,10.85
2022-12-29T04:09:43.338Z,10.80
2022-12-29T04:12:15.412Z,10.79
2022-12-29T04:14:42.268Z,10.77
2022-12-29T04:17:09.104Z,10.70
2022-12-29T04:19:35.871Z,10.71
2022-12-29T04:22:02.541Z,10.80
2022-12-29T04:24:30.458Z,10.94
2022-12-29T04:26:57.474Z,10.92
2022-12-29T04:29:46.527Z,10.92
2022-12-29T04:32:33.395Z,10.80
2022-12-29T04:35:00.106Z,11.01
2022-12-29T04:37:27.520Z,10.89
2022-12-29T04:39:54.729Z,10.88
2022-12-29T04:42:21.668Z,10.91
2022-12-29T04:44:49.519Z,10.88
2022-12-29T04:47:34.460Z,10.88
2022-12-29T04:50:22.572Z,11.06
2022-12-29T04:53:17.543Z,10.94
2022-12-29T04:55:53.075Z,10.96
2022-12-29T04:58:23.122Z,10.96
2022-12-29T05:00:52.818Z,10.92
2022-12-29T05:03:22.711Z,10.92
2022-12-29T05:05:49.886Z,10.95
2022-12-29T05:08:16.776Z,10.93
2022-12-29T05:10:46.647Z,10.88
2022-12-29T05:13:13.968Z,10.96
2022-12-29T05:15:42.395Z,10.93
2022-12-29T05:18:09.227Z,10.84
2022-12-29T05:20:35.918Z,10.81
2022-12-29T05:23:03.238Z,10.86
2022-12-29T05:25:30.105Z,10.84
2022-12-29T05:28:08.643Z,10.82
2022-12-29T05:30:42.966Z,10.80
2022-12-29T05:33:12.455Z,10.94
2022-12-29T05:35:40.049Z,10.92
2022-12-29T05:38:07.317Z,10.75
2022-12-29T05:40:34.375Z,10.69
2022-12-29T05:43:05.609Z,10.72
2022-12-29T05:45:53.645Z,10.61
2022-12-29T05:48:38.651Z,10.82
2022-12-29T05:51:14.811Z,10.85
2022-12-29T05:53:53.421Z,10.80
2022-12-29T05:56:20.184Z,10.82
2022-12-29T05:58:53.689Z,10.86
2022-12-29T06:01:22.125Z,10.74
2022-12-29T06:03:49.137Z,10.79
2022-12-29T06:06:18.868Z,10.73
2022-12-29T06:08:46.631Z,10.66
2022-12-29T06:11:14.463Z,10.58
2022-12-29T06:13:48.366Z,10.58
2022-12-29T06:16:16.703Z,10.48
2022-12-29T06:18:45.573Z,10.35
2022-12-29T06:21:13.071Z,10.47
2022-12-29T06:23:40.224Z,10.39
2022-12-29T06:26:06.892Z,10.26
2022-12-29T06:28:33.639Z,10.18
2022-12-29T06:31:03.057Z,10.21
2022-12-29T06:33:30.633Z,10.23
2022-12-29T06:35:57.705Z,10.28
2022-12-29T06:38:24.422Z,10.36
2022-12-29T06:40:51.164Z,10.36
2022-12-29T06:43:20.881Z,10.41
2022-12-29T06:45:56.252Z,10.39
2022-12-29T06:48:22.964Z,10.40
2022-12-29T06:50:49.699Z,10.36
2022-12-29T06:53:16.366Z,10.45
2022-12-29T06:55:43.372Z,10.41
2022-12-29T06:58:10.397Z,10.47
2022-12-29T07:00:37.064Z,10.36
2022-12-29T07:03:04.036Z,10.35
2022-12-29T07:05:32.555Z,10.35
2022-12-29T07:07:59.939Z,10.34
2022-12-29T07:10:27.204Z,10.22
2022-12-29T07:12:53.933Z,10.32
2022-12-29T07:15:20.709Z,10.30
2022-12-29T07:17:47.460Z,10.22
2022-12-29T07:20:14.097Z,10.15
2022-12-29T07:22:41.058Z,10.13
2022-12-29T07:25:08.518Z,10.12
2022-12-29T07:27:35.624Z,10.18
2022-12-29T07:30:02.312Z,10.11
2022-12-29T07:32:29.183Z,10.12
2022-12-29T07:34:55.899Z,10.12
2022-12-29T07:37:22.550Z,10.29
2022-12-29T07:39:49.215Z,10.20
2022-12-29T07:42:15.917Z,10.27
2022-12-29T07:44:44.574Z,10.30
2022-12-29T07:47:37.565Z,10.34
2022-12-29T07:50:05.864Z,10.29
2022-12-29T07:52:32.732Z,10.31
2022-12-29T07:54:59.887Z,10.19
2022-12-29T07:57:31.513Z,10.10
2022-12-29T07:59:59.529Z,10.18
2022-12-29T08:02:27.647Z,10.17
2022-12-29T08:04:54.738Z,10.14
2022-12-29T08:07:21.967Z,10.20
2022-12-29T08:09:48.653Z,10.16
2022-12-29T08:12:15.848Z,10.17
2022-12-29T08:14:42.513Z,10.11
2022-12-29T08:17:09.282Z,10.15
2022-12-29T08:19:35.965Z,10.13
2022-12-29T08:22:03.307Z,10.17
2022-12-29T08:24:30.019Z,10.15
2022-12-29T08:26:57.360Z,10.11
2022-12-29T08:29:24.217Z,10.17
2022-12-29T08:31:50.925Z,10.12
2022-12-29T08:34:17.595Z,10.05
2022-12-29T08:36:44.229Z,9.98
2022-12-29T08:39:10.932Z,9.76
2022-12-29T08:41:40.879Z,9.64
2022-12-29T08:44:07.515Z,9.52
2022-12-29T08:46:34.167Z,9.52
2022-12-29T08:49:08.404Z,9.43
2022-12-29T08:51:35.205Z,9.43
2022-12-29T08:54:01.843Z,9.41
2022-12-29T08:56:29.098Z,9.47
2022-12-29T08:58:57.844Z,9.52
2022-12-29T09:01:25.665Z,9.57
2022-12-29T09:04:14.375Z,9.50
2022-12-29T09:06:42.381Z,9.51
2022-12-29T09:09:09.476Z,9.66
2022-12-29T09:11:36.316Z,9.81
2022-12-29T09:14:03.288Z,9.88
2022-12-29T09:16:30.113Z,10.00
2022-12-29T09:18:56.812Z,10.06
2022-12-29T09:21:23.540Z,10.11
2022-12-29T09:23:50.234Z,10.24
2022-12-29T09:26:16.945Z,10.28
2022-12-29T09:28:45.220Z,10.20
2022-12-29T09:31:12.204Z,10.31
2022-12-29T09:33:39.085Z,10.36
2022-12-29T09:36:06.224Z,10.36
2022-12-29T09:38:32.965Z,10.33
2022-12-29T09:41:15.458Z,10.27
2022-12-29T09:44:07.999Z,10.29
2022-12-29T09:47:01.804Z,10.30
2022-12-29T09:50:26.572Z,10.32
2022-12-29T09:53:06.065Z,10.37
2022-12-29T09:56:01.668Z,10.50
2022-12-29T09:58:46.494Z,10.69
2022-12-29T10:01:38.354Z,10.73
2022-12-29T10:04:06.259Z,10.69
2022-12-29T10:10:39.261Z,10.80
2022-12-29T10:13:29.974Z,10.86
2022-12-29T10:16:24.022Z,10.79
2022-12-29T10:19:08.924Z,10.73
2022-12-29T10:21:59.911Z,10.75
2022-12-29T10:24:30.433Z,10.73
2022-12-29T10:26:59.813Z,10.72
2022-12-29T10:29:41.487Z,10.72
2022-12-29T10:32:34.006Z,10.74
2022-12-29T10:35:15.148Z,10.64
2022-12-29T10:38:12.478Z,10.63
2022-12-29T10:40:52.312Z,10.72
2022-12-29T10:43:27.056Z,10.76
2022-12-29T10:46:06.345Z,10.82
2022-12-29T10:48:35.836Z,10.82
2022-12-29T10:51:06.872Z,10.82
2022-12-29T10:53:42.843Z,10.79
2022-12-29T10:56:31.026Z,10.90
2022-12-29T10:59:03.197Z,10.87
2022-12-29T11:01:41.141Z,10.96
2022-12-29T11:04:36.096Z,10.87
2022-12-29T11:07:04.701Z,10.91
2022-12-29T11:09:42.427Z,10.91
2022-12-29T11:12:29.769Z,10.78
2022-12-29T11:15:08.738Z,10.73
2022-12-29T11:17:51.492Z,10.66
2022-12-29T11:20:36.064Z,10.65
2022-12-29T11:23:05.670Z,10.62
2022-12-29T11:25:33.129Z,10.63
2022-12-29T11:28:16.428Z,10.68
2022-12-29T11:30:44.059Z,10.59
2022-12-29T11:33:11.124Z,10.55
2022-12-29T11:35:43.494Z,10.57
2022-12-29T11:38:27.273Z,10.56
2022-12-29T11:40:54.257Z,10.57
2022-12-29T11:43:42.073Z,10.58
2022-12-29T11:46:26.829Z,10.58
2022-12-29T11:48:53.858Z,10.57
2022-12-29T11:51:28.345Z,10.58
2022-12-29T11:53:59.712Z,10.58
2022-12-29T11:56:41.290Z,10.57
2022-12-29T11:59:30.731Z,10.55
2022-12-29T12:01:59.885Z,10.52
2022-12-29T12:04:32.225Z,10.55
2022-12-29T12:07:40.175Z,10.51
2022-12-29T12:10:14.055Z,10.49
2022-12-29T12:12:52.826Z,10.50
2022-12-29T12:16:08.888Z,10.48
2022-12-29T12:18:49.232Z,10.47
2022-12-29T12:21:27.401Z,10.43
2022-12-29T12:24:09.151Z,10.44
2022-12-29T12:26:39.243Z,10.44
2022-12-29T12:29:33.696Z,10.40
2022-12-29T12:32:28.412Z,10.38
2022-12-29T12:34:55.102Z,10.39
2022-12-29T12:52:07.360Z,10.60
2022-12-29T12:55:03.109Z,10.47
2022-12-29T12:58:10.646Z,10.41
2022-12-29T13:00:53.129Z,10.36
2022-12-29T13:03:50.861Z,10.34
2022-12-29T13:06:43.744Z,10.29
2022-12-29T13:09:32.326Z,10.18
2022-12-29T13:12:41.360Z,10.12
2022-12-29T13:15:31.025Z,10.17
2022-12-29T13:18:07.411Z,10.21
2022-12-29T13:20:56.748Z,10.19
2022-12-29T13:23:32.338Z,10.20
2022-12-29T13:26:16.272Z,10.18
2022-12-29T13:29:20.062Z,10.21
2022-12-29T13:32:31.117Z,10.24
2022-12-29T13:35:33.347Z,10.25
2022-12-29T13:38:21.801Z,10.28
2022-12-29T13:40:56.317Z,10.29
2022-12-29T13:43:24.705Z,10.27
2022-12-29T13:46:02.466Z,10.26
2022-12-29T13:48:54.979Z,10.19
2022-12-29T13:51:27.719Z,10.16
2022-12-29T13:54:13.093Z,10.15
2022-12-29T13:57:05.037Z,10.15
2022-12-29T13:59:58.000Z,10.13
2022-12-29T14:02:34.471Z,10.09
2022-12-29T14:05:07.014Z,10.09
2022-12-29T14:07:39.319Z,10.08
2022-12-29T14:10:07.368Z,10.12
2022-12-29T14:12:39.148Z,10.09
2022-12-29T14:15:11.908Z,10.06
2022-12-29T14:17:45.289Z,10.05
2022-12-29T14:20:24.090Z,9.99
2022-12-29T14:23:17.510Z,10.01
2022-12-29T14:26:05.979Z,10.02
2022-12-29T14:28:45.161Z,10.01
2022-12-29T14:31:14.984Z,9.94
2022-12-29T14:34:11.630Z,9.96
2022-12-29T14:36:41.055Z,9.88
2022-12-29T14:39:36.746Z,9.93
2022-12-29T14:42:18.476Z,9.93
2022-12-29T14:45:01.985Z,9.86
2022-12-29T14:47:37.292Z,9.84
2022-12-29T14:50:26.196Z,9.83
2022-12-29T14:53:04.361Z,9.82
2022-12-29T14:55:48.362Z,9.76
2022-12-29T14:58:32.709Z,9.77
2022-12-29T15:01:00.810Z,9.72
2022-12-29T15:03:33.743Z,9.72
2022-12-29T15:06:14.223Z,9.71
2022-12-29T15:08:51.155Z,9.72
2022-12-29T15:11:26.100Z,9.74
2022-12-29T15:13:53.449Z,9.77
2022-12-29T15:16:36.744Z,9.74
2022-12-29T15:19:06.063Z,9.72
2022-12-29T15:21:37.470Z,9.66
2022-12-29T15:24:05.381Z,9.60
2022-12-29T15:26:40.714Z,9.60
2022-12-29T15:29:46.619Z,9.62
2022-12-29T15:32:16.329Z,9.58
2022-12-29T15:34:50.574Z,9.59
2022-12-29T15:37:27.459Z,9.56
2022-12-29T15:39:56.886Z,9.53
2022-12-29T15:42:51.544Z,9.43
2022-12-29T15:45:18.350Z,9.33
2022-12-29T15:47:49.657Z,9.31
2022-12-29T15:50:32.310Z,9.29
2022-12-29T15:53:00.623Z,9.32
2022-12-29T15:55:40.249Z,9.35
2022-12-29T15:58:24.294Z,9.34
2022-12-29T16:00:59.138Z,9.31
2022-12-29T16:03:28.161Z,9.34
2022-12-29T16:06:07.810Z,9.35
2022-12-29T16:08:41.109Z,9.36
2022-12-29T16:11:24.180Z,9.38
2022-12-29T16:13:53.840Z,9.37
2022-12-29T16:16:38.962Z,9.29
2022-12-29T16:19:15.817Z,9.30
2022-12-29T16:21:44.154Z,9.24
2022-12-29T16:24:27.608Z,9.15
2022-12-29T16:27:07.686Z,9.08
2022-12-29T16:29:35.759Z,9.01
2022-12-29T16:32:04.216Z,8.99
2022-12-29T16:34:38.692Z,8.95
2022-12-29T16:37:37.664Z,9.06
2022-12-29T16:40:23.119Z,9.00
2022-12-29T16:42:52.425Z,8.99
2022-12-29T16:45:21.496Z,9.02
2022-12-29T16:47:54.985Z,9.01
2022-12-29T16:50:28.202Z,9.03
2022-12-29T16:52:55.869Z,9.02
2022-12-29T16:55:23.095Z,9.03
2022-12-29T16:57:54.496Z,8.98
2022-12-29T17:00:25.713Z,8.96
2022-12-29T17:02:57.523Z,9.00
2022-12-29T17:05:24.601Z,8.84
2022-12-29T17:07:55.845Z,8.53
2022-12-29T17:10:42.551Z,8.32
2022-12-29T17:13:09.579Z,8.36
2022-12-29T17:15:36.551Z,8.30
2022-12-29T17:18:06.300Z,8.29
2022-12-29T17:20:35.405Z,8.34
2022-12-29T17:23:02.603Z,8.40
2022-12-29T17:25:34.411Z,8.40
2022-12-29T17:28:04.416Z,8.53
2022-12-29T17:30:34.685Z,8.46
2022-12-29T17:33:09.638Z,8.46
2022-12-29T17:35:37.647Z,8.38
2022-12-29T17:38:23.991Z,8.27
2022-12-29T17:40:50.926Z,8.23
2022-12-29T17:43:18.333Z,8.28
2022-12-29T17:45:51.034Z,8.26
2022-12-29T17:48:18.917Z,8.19
2022-12-29T17:50:49.400Z,8.24
2022-12-29T17:53:21.893Z,8.22
2022-12-29T17:55:48.840Z,8.19
2022-12-29T17:58:21.344Z,8.18
2022-12-29T18:00:51.526Z,8.17
2022-12-29T18:03:23.640Z,8.11
2022-12-29T18:05:50.987Z,8.13
2022-12-29T18:08:17.775Z,8.00
2022-12-29T18:10:44.921Z,7.95
2022-12-29T18:13:22.299Z,7.87
2022-12-29T18:15:49.219Z,7.78
2022-12-29T18:18:20.340Z,7.82
2022-12-29T18:20:50.068Z,7.70
2022-12-29T18:23:32.153Z,7.73
2022-12-29T18:26:08.082Z,7.73
2022-12-29T18:28:34.761Z,7.69
2022-12-29T18:31:02.038Z,7.62
2022-12-29T18:33:29.933Z,7.60
2022-12-29T18:36:03.668Z,7.56
2022-12-29T18:38:31.006Z,7.69
2022-12-29T18:40:59.378Z,7.63
2022-12-29T18:43:26.432Z,7.63
2022-12-29T18:45:53.244Z,7.61
2022-12-29T18:48:20.767Z,7.63
2022-12-29T18:50:53.170Z,7.64
2022-12-29T18:53:23.760Z,7.61
2022-12-29T18:55:52.231Z,7.57
2022-12-29T18:58:19.528Z,7.51
2022-12-29T19:00:47.294Z,7.55
2022-12-29T19:03:17.599Z,7.55
2022-12-29T19:05:47.185Z,7.47
2022-12-29T19:08:14.183Z,7.44
2022-12-29T19:10:42.167Z,7.41
2022-12-29T19:13:17.553Z,7.55
2022-12-29T19:15:46.506Z,7.52
2022-12-29T19:21:11.727Z,7.37
2022-12-29T19:23:38.466Z,7.33
2022-12-29T19:26:05.377Z,7.32
2022-12-29T19:28:32.120Z,7.23
2022-12-29T19:31:02.148Z,7.19
2022-12-29T19:33:29.529Z,7.17
2022-12-29T19:36:01.752Z,7.10
2022-12-29T19:38:28.858Z,7.18
2022-12-29T19:40:55.624Z,7.09
2022-12-29T19:43:22.326Z,7.05
2022-12-29T19:45:49.061Z,7.00
2022-12-29T19:48:19.446Z,7.04
2022-12-29T19:50:46.360Z,6.99
2022-12-29T19:53:14.615Z,6.93
2022-12-29T19:55:45.976Z,6.99
2022-12-29T19:58:13.597Z,6.88
2022-12-29T20:00:42.361Z,6.90
2022-12-29T20:03:09.491Z,6.85
2022-12-29T20:05:37.145Z,6.80
2022-12-29T20:08:03.915Z,6.81
2022-12-29T20:10:30.954Z,6.89
2022-12-29T20:12:57.838Z,6.83
2022-12-29T20:15:24.575Z,6.84
2022-12-29T20:20:37.899Z,6.83
2022-12-29T20:23:04.578Z,6.80
2022-12-29T20:25:47.483Z,6.88
2022-12-29T20:28:15.934Z,6.90
2022-12-29T20:30:43.279Z,6.85
2022-12-29T20:33:10.349Z,6.82
2022-12-29T20:35:37.727Z,6.84
2022-12-29T20:38:05.295Z,6.90
2022-12-29T20:40:32.106Z,6.86
2022-12-29T20:42:58.795Z,6.85
2022-12-29T20:45:25.779Z,6.91
2022-12-29T20:47:52.493Z,6.90
2022-12-29T20:50:19.233Z,6.84
2022-12-29T20:52:47.058Z,6.84
2022-12-29T20:55:14.449Z,6.78
2022-12-29T21:00:32.769Z,6.88
2022-12-29T21:03:00.868Z,6.91
2022-12-29T21:05:28.926Z,6.87
2022-12-29T21:07:55.959Z,6.90
2022-12-29T21:10:23.260Z,6.87
2022-12-29T21:12:50.079Z,6.91
2022-12-29T21:15:16.916Z,6.85
2022-12-29T21:17:44.713Z,6.88
2022-12-29T21:20:20.539Z,6.88
2022-12-29T21:22:48.095Z,6.88
2022-12-29T21:25:15.149Z,6.87
2022-12-29T21:27:45.591Z,6.89
2022-12-29T21:30:13.268Z,6.93
2022-12-29T21:32:41.348Z,6.88
2022-12-29T21:35:09.898Z,6.84
2022-12-29T21:37:36.941Z,6.84
2022-12-29T21:40:04.592Z,6.83
2022-12-29T21:42:31.645Z,6.91
2022-12-29T21:45:20.835Z,6.91
2022-12-29T21:48:07.488Z,6.97
2022-12-29T21:50:59.226Z,6.93
2022-12-29T21:53:37.706Z,6.95
2022-12-29T21:56:11.670Z,6.96
2022-12-29T21:58:59.414Z,6.91
2022-12-29T22:01:46.808Z,6.90
2022-12-29T22:04:35.295Z,6.93
2022-12-29T22:07:22.355Z,6.88
2022-12-29T22:10:07.942Z,6.83
2022-12-29T22:12:54.379Z,6.82
2022-12-29T22:15:21.475Z,6.84
2022-12-29T22:17:50.969Z,6.76
2022-12-29T22:20:19.716Z,6.70
2022-12-29T22:22:46.698Z,6.78
2022-12-29T22:25:14.209Z,6.83
2022-12-29T22:27:40.995Z,6.74
2022-12-29T22:30:08.777Z,6.71
2022-12-29T22:32:35.732Z,6.72
2022-12-29T22:35:07.739Z,6.67
2022-12-29T22:37:37.356Z,6.59
2022-12-29T22:40:06.662Z,6.56
2022-12-29T22:42:33.353Z,6.55
2022-12-29T22:45:00.030Z,6.61
2022-12-29T22:47:26.705Z,6.57
2022-12-29T22:49:53.387Z,6.57
2022-12-29T22:52:20.176Z,6.62
2022-12-29T22:54:46.816Z,6.64
2022-12-29T22:57:13.615Z,6.60
2022-12-29T22:59:40.312Z,6.49
2022-12-29T23:02:07.176Z,6.54
2022-12-29T23:05:02.296Z,6.49
2022-12-29T23:07:21.379Z,6.48
2022-12-29T23:09:48.050Z,6.49
2022-12-29T23:12:14.696Z,6.51
2022-12-29T23:14:41.380Z,6.40
2022-12-29T23:17:08.102Z,6.38
2022-12-29T23:19:34.815Z,6.37
2022-12-29T23:22:01.597Z,6.35
2022-12-29T23:24:28.357Z,6.27
2022-12-29T23:26:55.060Z,6.26
2022-12-29T23:29:21.790Z,6.25
2022-12-29T23:31:49.014Z,6.20
2022-12-29T23:34:17.020Z,6.18
2022-12-29T23:36:43.914Z,6.13
2022-12-29T23:39:23.189Z,6.13
2022-12-29T23:41:50.384Z,6.10
2022-12-29T23:44:17.112Z,6.12
2022-12-29T23:46:44.054Z,6.09
2022-12-29T23:49:11.078Z,6.13
2022-12-29T23:51:37.844Z,6.08
2022-12-29T23:54:05.212Z,6.08
2022-12-29T23:56:32.386Z,6.07
2022-12-29T23:58:59.071Z,6.05
